»·PEaware :: XSR361 KONT-KSMF

XSR361 :: KONT-KSMF

FLIGHT INFORMATION

Flight Status: Arrived
Operator: Unknown
More flights by this operator :: More flights under this callsign
Pilot: Gabor H. (24209)
Aircraft: EMBRAER PHENOM 300
(E55P)
More flights by this aircraft type
Origin: KONT Ontario Intl
United States
Destination: KSMF Sacramento Intl
United States
More flights between these airports :: More routes between these airports
Route: SNSHN5 EHF NURAY SUUTR4
File this flight plan on PilotEdge
Remarks:
Altitude:
(Current/Filed)
32,000ft
Speed:
(Current/Filed)
420kts
Departed: 22-Oct-23 09:05 AM
Arrived: 22-Oct-23 10:16 AM
Distance/Time
Traveled:
338nm/1:11
Distance/Time
To Go:
Arrived

Flight Plot

Page will automatically refresh every two minutes.

Flight plan parsing failed; only flown route is shown


Map Options




Map Legend


Flown Route
Filed Route
Departure Airport
Arrival Airport
Navaid (VOR, NDB)
Fix

Horizontal Profiles

Position Reports

Time Latitude Longitude Heading Altitude Ground
Speed
22-Oct-23 08:43 34.051476 -117.612564 349 946ft 0kts
22-Oct-23 08:44 34.051476 -117.612564 349 945ft 0kts
22-Oct-23 08:45 34.051476 -117.612564 349 945ft 0kts
22-Oct-23 08:46 34.051476 -117.612564 349 945ft 0kts
22-Oct-23 08:47 34.051476 -117.612564 349 945ft 0kts
22-Oct-23 08:49 34.051476 -117.612564 349 945ft 0kts
22-Oct-23 08:49 34.051476 -117.612564 349 945ft 0kts
22-Oct-23 08:50 34.051476 -117.612564 349 945ft 0kts
22-Oct-23 08:51 34.051476 -117.612564 349 945ft 0kts
22-Oct-23 08:52 34.051476 -117.612564 349 945ft 0kts
22-Oct-23 08:53 34.051476 -117.612564 349 945ft 0kts
22-Oct-23 08:54 34.051476 -117.612564 349 945ft 0kts
22-Oct-23 08:55 34.051476 -117.612564 349 945ft 0kts
22-Oct-23 08:56 34.051476 -117.612564 349 945ft 0kts
22-Oct-23 08:57 34.051708 -117.612667 329 945ft 6kts
22-Oct-23 08:58 34.053863 -117.610993 89 945ft 14kts
22-Oct-23 08:59 34.053845 -117.605175 88 945ft 20kts
22-Oct-23 09:00 34.053870 -117.597602 89 945ft 24kts
22-Oct-23 09:01 34.053881 -117.588952 89 945ft 25kts
22-Oct-23 09:02 34.054012 -117.582915 47 945ft 0kts
22-Oct-23 09:03 34.054055 -117.582864 41 945ft 3kts
22-Oct-23 09:04 34.054897 -117.594317 269 964ft 134kts
22-Oct-23 09:05 34.056557 -117.652730 272 3030ft 187kts
22-Oct-23 09:06 34.061551 -117.715988 284 5041ft 193kts
22-Oct-23 09:07 34.076351 -117.778446 285 7119ft 196kts
22-Oct-23 09:08 34.116835 -117.838025 309 9287ft 250kts
22-Oct-23 09:09 34.157701 -117.906519 302 12481ft 257kts
22-Oct-23 09:10 34.201213 -117.980434 302 14003ft 288kts
22-Oct-23 09:11 34.249408 -118.062297 301 16431ft 305kts
22-Oct-23 09:12 34.299489 -118.139574 307 19926ft 283kts
22-Oct-23 09:13 34.353889 -118.212370 307 22083ft 299kts
22-Oct-23 09:14 34.410400 -118.288010 306 24172ft 308kts
22-Oct-23 09:15 34.468330 -118.365720 306 26121ft 315kts
22-Oct-23 09:16 34.527427 -118.445161 306 27927ft 321kts
22-Oct-23 09:17 34.602792 -118.507705 325 29502ft 339kts
22-Oct-23 09:18 34.685299 -118.562320 324 31260ft 336kts
22-Oct-23 09:19 34.768966 -118.617893 324 31978ft 362kts
22-Oct-23 09:20 34.862227 -118.679861 324 32034ft 402kts
22-Oct-23 09:21 34.964154 -118.747689 325 32041ft 430kts
22-Oct-23 09:22 35.069366 -118.817934 325 32031ft 432kts
22-Oct-23 09:23 35.174209 -118.888156 325 31984ft 430kts
22-Oct-23 09:24 35.278956 -118.958533 325 31972ft 432kts
22-Oct-23 09:25 35.383972 -119.029300 325 31971ft 432kts
22-Oct-23 09:26 35.488821 -119.099819 328 31965ft 436kts
22-Oct-23 09:27 35.600312 -119.159383 330 31971ft 437kts
22-Oct-23 09:28 35.710978 -119.218881 330 31971ft 435kts
22-Oct-23 09:29 35.821923 -119.278747 330 31971ft 438kts
22-Oct-23 09:30 35.933216 -119.338975 330 31973ft 436kts
22-Oct-23 09:31 36.043937 -119.399096 330 31976ft 440kts
22-Oct-23 09:32 36.156608 -119.460441 330 31968ft 442kts
22-Oct-23 09:33 36.268300 -119.521450 330 31966ft 439kts
22-Oct-23 09:34 36.380155 -119.582752 330 31966ft 442kts
22-Oct-23 09:35 36.491880 -119.644173 330 31966ft 441kts
22-Oct-23 09:36 36.605806 -119.709708 321 31973ft 435kts
22-Oct-23 09:37 36.713908 -119.794612 321 31975ft 436kts
22-Oct-23 09:38 36.820231 -119.878704 321 31975ft 437kts
22-Oct-23 09:39 36.922871 -119.960171 321 31975ft 438kts
22-Oct-23 09:40 37.025805 -120.042115 321 31974ft 438kts
22-Oct-23 09:41 37.128210 -120.123940 321 31893ft 440kts
22-Oct-23 09:42 37.235035 -120.209582 322 29424ft 450kts
22-Oct-23 09:43 37.340575 -120.292841 323 27087ft 447kts
22-Oct-23 09:44 37.445108 -120.374410 323 24732ft 440kts
22-Oct-23 09:45 37.539431 -120.463584 316 22661ft 409kts
22-Oct-23 09:46 37.623147 -120.547535 316 20725ft 362kts
22-Oct-23 09:47 37.700847 -120.625529 316 19501ft 362kts
22-Oct-23 09:48 37.779071 -120.704183 315 18251ft 353kts
22-Oct-23 09:49 37.855866 -120.781657 316 16776ft 356kts
22-Oct-23 09:50 37.932555 -120.859520 316 15628ft 348kts
22-Oct-23 09:51 38.007891 -120.936269 316 14649ft 350kts
22-Oct-23 09:52 38.081842 -121.015363 305 12961ft 339kts
22-Oct-23 09:53 38.141911 -121.103711 307 11165ft 314kts
22-Oct-23 09:54 38.195358 -121.182602 308 9603ft 281kts
22-Oct-23 09:55 38.247054 -121.252267 313 8989ft 266kts
22-Oct-23 09:56 38.299936 -121.319220 312 8991ft 269kts
22-Oct-23 09:57 38.353937 -121.387775 312 8995ft 272kts
22-Oct-23 09:58 38.409312 -121.458146 313 9001ft 285kts
22-Oct-23 09:59 38.465659 -121.529946 312 8998ft 283kts
22-Oct-23 10:00 38.525790 -121.592876 319 7939ft 279kts
22-Oct-23 10:01 38.586686 -121.651143 339 6573ft 271kts
22-Oct-23 10:02 38.657996 -121.678766 341 5186ft 268kts
22-Oct-23 10:03 38.728912 -121.700209 0 4012ft 256kts
22-Oct-23 10:04 38.798758 -121.698005 1 3999ft 247kts
22-Oct-23 10:05 38.866504 -121.695813 1 4000ft 242kts
22-Oct-23 10:06 38.933251 -121.693822 1 4003ft 239kts
22-Oct-23 10:07 38.998588 -121.686754 38 4012ft 233kts
22-Oct-23 10:08 38.978743 -121.632888 163 3563ft 222kts
22-Oct-23 10:09 38.920387 -121.609341 163 2995ft 207kts
22-Oct-23 10:10 38.868109 -121.597960 182 2992ft 181kts
22-Oct-23 10:11 38.819118 -121.599204 180 2233ft 158kts
22-Oct-23 10:12 38.779478 -121.599868 180 1494ft 129kts
22-Oct-23 10:13 38.745501 -121.600417 180 816ft 119kts
22-Oct-23 10:14 38.713569 -121.601001 181 198ft 106kts
22-Oct-23 10:15 38.694016 -121.600242 152 26ft 15kts
22-Oct-23 10:16 38.693400 -121.599837 150 26ft 8kts
22-Oct-23 10:17 38.687821 -121.598816 180 26ft 29kts
22-Oct-23 10:18 38.681607 -121.598518 131 21ft 9kts
22-Oct-23 10:19 38.681310 -121.597007 0 22ft 1kts
22-Oct-23 10:20 38.681407 -121.597010 356 22ft 0kts
22-Oct-23 10:21 38.681407 -121.597010 356 22ft 0kts

Navigation Log

Ident Type
Flight plan parsing failed, navigation log unavailable